Time;durP1;ratioP1;P1;durP2;ratioP2;P2;SDS_P1;SDS_P2;PMS_P1;PMS_P2;Temp;Humidity;BMP_temperature;BMP_pressure;BME280_temperature;BME280_humidity;BME280_pressure;Samples;Min_cycle;Max_cycle;Signal;HPM_P1;HPM_P2
2022/03/08 00:02:25;;;;;;;13.72;6.85;;;;;;;0.30;66.69;101142.52;3474461;79;21015;-66
2022/03/08 00:07:17;;;;;;;12.33;5.80;;;;;;;0.19;66.94;101146.06;3466894;79;21014;-66
2022/03/08 00:12:10;;;;;;;12.95;7.17;;;;;;;0.17;67.25;101145.08;3509540;79;20972;-66
2022/03/08 00:17:02;;;;;;;13.75;7.10;;;;;;;0.19;67.61;101144.78;3460312;80;21277;-66
2022/03/08 00:21:53;;;;;;;15.98;7.75;;;;;;;0.27;67.78;101129.56;3505690;80;21081;-65
2022/03/08 00:26:45;;;;;;;14.68;9.08;;;;;;;0.29;67.63;101126.70;3510703;80;21429;-66
2022/03/08 00:31:36;;;;;;;14.80;8.38;;;;;;;0.24;67.68;101117.84;3538537;78;22084;-66
2022/03/08 00:36:28;;;;;;;14.07;7.30;;;;;;;0.15;67.54;101113.01;3541900;78;21058;-65
2022/03/08 00:41:20;;;;;;;14.98;7.53;;;;;;;-0.02;67.35;101111.92;3540601;80;21015;-66
2022/03/08 00:46:11;;;;;;;16.52;9.13;;;;;;;-0.17;67.49;101122.40;3519094;79;20969;-66
2022/03/08 00:51:03;;;;;;;16.20;8.00;;;;;;;-0.32;67.56;101128.66;3482121;79;20950;-65
2022/03/08 00:55:54;;;;;;;14.75;8.50;;;;;;;-0.37;67.92;101129.14;3504743;79;20935;-65
2022/03/08 01:00:45;;;;;;;12.30;7.12;;;;;;;-0.46;68.06;101135.38;3485819;79;20909;-65
2022/03/08 01:05:36;;;;;;;10.95;5.95;;;;;;;-0.51;68.07;101134.58;3535373;80;21440;-65
2022/03/08 01:10:30;;;;;;;15.72;7.05;;;;;;;-0.58;68.46;101137.09;3529792;80;20983;-65
2022/03/08 01:15:24;;;;;;;9.53;6.12;;;;;;;-0.64;68.72;101129.03;3542800;80;21000;-66
2022/03/08 01:20:15;;;;;;;13.45;5.37;;;;;;;-0.64;68.82;101131.59;3495538;79;21499;-65
2022/03/08 01:25:10;;;;;;;7.67;5.62;;;;;;;-0.69;68.73;101122.72;3435846;81;20963;-65
2022/03/08 01:30:08;;;;;;;12.63;6.35;;;;;;;-0.74;68.79;101119.84;3529545;80;22537;-65
2022/03/08 01:34:59;;;;;;;11.57;6.53;;;;;;;-0.81;68.89;101121.07;3515733;79;20907;-66
2022/03/08 01:39:50;;;;;;;11.75;6.87;;;;;;;-0.89;68.76;101112.02;3472461;79;21028;-65
2022/03/08 01:44:46;;;;;;;13.08;6.25;;;;;;;-0.96;68.79;101107.27;3455690;81;21471;-66
2022/03/08 01:49:37;;;;;;;12.65;6.42;;;;;;;-1.09;68.27;101114.83;3463737;79;21080;-65
2022/03/08 01:54:28;;;;;;;9.70;5.83;;;;;;;-1.16;68.69;101112.27;3435910;81;22673;-65
2022/03/08 01:59:19;;;;;;;12.98;6.90;;;;;;;-1.23;68.87;101110.94;3468345;79;21022;-66
2022/03/08 02:04:12;;;;;;;12.37;6.83;;;;;;;-1.31;68.88;101110.77;3436232;80;21042;-65
2022/03/08 02:09:04;;;;;;;10.32;6.03;;;;;;;-1.35;69.27;101112.22;3459724;79;20942;-65
2022/03/08 02:13:55;;;;;;;10.75;6.53;;;;;;;-1.40;68.75;101117.77;3466642;79;21190;-65
2022/03/08 02:18:46;;;;;;;11.10;6.60;;;;;;;-1.47;69.17;101114.29;3486180;81;21464;-66
2022/03/08 02:23:37;;;;;;;10.00;6.60;;;;;;;-1.47;69.61;101117.72;3504573;81;20967;-65
2022/03/08 02:28:29;;;;;;;18.67;7.65;;;;;;;-1.44;69.92;101118.34;3471635;79;20939;-65
2022/03/08 02:33:20;;;;;;;12.03;7.17;;;;;;;-1.44;69.85;101119.62;3470461;80;21386;-65
2022/03/08 02:38:12;;;;;;;16.95;6.70;;;;;;;-1.46;70.30;101125.88;3473356;81;20963;-65
2022/03/08 02:43:06;;;;;;;12.78;6.47;;;;;;;-1.48;70.01;101129.11;3481891;80;21219;-65
2022/03/08 02:47:57;;;;;;;9.98;7.25;;;;;;;-1.54;70.21;101134.27;3459369;81;20944;-65
2022/03/08 02:52:51;;;;;;;11.57;6.30;;;;;;;-1.51;70.48;101137.81;3478996;80;20966;-66
2022/03/08 02:57:43;;;;;;;15.90;6.35;;;;;;;-1.58;70.41;101134.80;3484836;81;21389;-65
2022/03/08 03:02:34;;;;;;;14.15;6.65;;;;;;;-1.61;70.79;101149.90;3466650;80;21538;-65
2022/03/08 03:07:26;;;;;;;9.33;5.58;;;;;;;-1.61;70.68;101149.90;3483188;79;21215;-65
2022/03/08 03:12:17;;;;;;;8.40;6.85;;;;;;;-1.63;70.69;101160.74;3492409;80;21005;-66
2022/03/08 03:17:09;;;;;;;11.63;7.20;;;;;;;-1.63;71.08;101156.52;3520472;79;21480;-65
2022/03/08 03:22:00;;;;;;;12.65;7.03;;;;;;;-1.62;71.09;101157.03;3527151;79;20923;-65
2022/03/08 03:26:51;;;;;;;11.03;6.60;;;;;;;-1.67;71.15;101169.83;3535334;78;20971;-65
2022/03/08 03:31:42;;;;;;;15.18;8.15;;;;;;;-1.68;71.10;101166.80;3583594;78;21086;-66
2022/03/08 03:36:33;;;;;;;10.55;5.97;;;;;;;-1.74;71.19;101171.44;3567777;79;21055;-65
2022/03/08 03:41:24;;;;;;;12.93;6.90;;;;;;;-1.76;70.87;101183.19;3533472;79;20955;-65
2022/03/08 03:46:16;;;;;;;10.48;6.60;;;;;;;-1.78;71.04;101179.64;3527349;78;20994;-66
2022/03/08 03:51:07;;;;;;;8.60;6.00;;;;;;;-1.84;71.05;101181.72;3562081;78;20959;-65
2022/03/08 03:55:58;;;;;;;12.88;6.58;;;;;;;-1.90;70.80;101181.27;3534647;78;21065;-65
2022/03/08 04:00:49;;;;;;;15.25;8.30;;;;;;;-1.96;70.95;101183.87;3534498;78;20943;-65
2022/03/08 04:05:40;;;;;;;13.60;7.80;;;;;;;-1.97;71.31;101187.20;3579929;78;20955;-65
2022/03/08 04:10:31;;;;;;;14.68;8.30;;;;;;;-1.98;71.22;101191.79;3546651;79;20987;-65
2022/03/08 04:15:23;;;;;;;15.53;8.13;;;;;;;-1.99;71.04;101192.94;3484788;79;21050;-65
2022/03/08 04:20:14;;;;;;;14.70;9.13;;;;;;;-1.99;70.72;101200.19;3534919;79;22076;-66
2022/03/08 04:25:06;;;;;;;19.25;10.40;;;;;;;-1.98;71.24;101200.70;3570079;79;21118;-65
2022/03/08 04:29:58;;;;;;;17.73;11.78;;;;;;;-1.96;71.35;101200.44;3504892;79;21357;-66
2022/03/08 04:34:49;;;;;;;17.00;11.08;;;;;;;-1.94;71.11;101206.52;3536462;79;20972;-65
2022/03/08 04:39:40;;;;;;;15.53;9.53;;;;;;;-1.84;71.52;101203.38;3518240;79;21033;-65
2022/03/08 04:44:31;;;;;;;19.20;11.75;;;;;;;-1.73;71.86;101216.56;3553559;78;21197;-65
2022/03/08 04:49:22;;;;;;;17.90;10.38;;;;;;;-1.59;72.21;101213.37;3564913;79;21991;-65
2022/03/08 04:54:13;;;;;;;13.48;8.60;;;;;;;-1.44;72.28;101207.62;3608020;78;21577;-66
2022/03/08 04:59:05;;;;;;;14.73;8.50;;;;;;;-1.36;72.42;101206.48;3590504;78;21412;-66
2022/03/08 05:03:56;;;;;;;12.63;7.50;;;;;;;-1.29;72.59;101202.33;3532746;78;21003;-66
2022/03/08 05:08:47;;;;;;;14.23;8.60;;;;;;;-1.20;72.59;101199.19;3557215;79;21117;-66
2022/03/08 05:13:38;;;;;;;11.35;7.58;;;;;;;-1.17;72.57;101199.39;3557562;79;20971;-66
2022/03/08 05:18:30;;;;;;;14.63;8.58;;;;;;;-1.11;72.70;101206.98;3528978;78;21109;-65
2022/03/08 05:23:21;;;;;;;10.93;8.33;;;;;;;-1.09;72.72;101209.26;3567245;79;21464;-65
2022/03/08 05:28:12;;;;;;;15.08;9.85;;;;;;;-1.05;72.82;101221.48;3505445;79;20951;-66
2022/03/08 05:33:04;;;;;;;14.50;9.15;;;;;;;-1.01;72.88;101240.06;3497523;79;21960;-65
2022/03/08 05:37:55;;;;;;;16.52;9.05;;;;;;;-0.90;72.87;101224.23;3577607;78;20979;-65
2022/03/08 05:42:46;;;;;;;17.80;11.28;;;;;;;-0.81;72.67;101220.66;3526143;78;21319;-65
2022/03/08 05:47:40;;;;;;;23.98;13.83;;;;;;;-0.81;72.67;101220.66;3528514;78;20985;-65
2022/03/08 05:52:31;;;;;;;17.48;10.48;;;;;;;-0.74;72.78;101227.48;3501745;79;21537;-65
2022/03/08 05:57:22;;;;;;;13.60;9.73;;;;;;;-0.68;72.83;101243.22;3548064;79;21439;-65
2022/03/08 06:02:13;;;;;;;16.75;11.22;;;;;;;-0.65;72.62;101248.16;3523710;79;20951;-65
2022/03/08 06:07:05;;;;;;;17.48;11.97;;;;;;;-0.60;72.71;101253.61;3569381;79;20929;-65
2022/03/08 06:11:56;;;;;;;15.15;10.32;;;;;;;-0.55;72.72;101265.04;3533547;79;20964;-65
2022/03/08 06:16:47;;;;;;;20.88;11.50;;;;;;;-0.55;72.84;101289.30;3516823;79;20992;-66
2022/03/08 06:21:38;;;;;;;16.07;12.40;;;;;;;-0.55;72.84;101289.30;3578439;78;21777;-66
2022/03/08 06:26:31;;;;;;;21.35;11.97;;;;;;;-0.53;72.62;101294.13;3511107;79;20958;-66
2022/03/08 06:31:22;;;;;;;18.50;11.78;;;;;;;-0.54;72.72;101278.28;3489318;79;21414;-65
2022/03/08 06:36:13;;;;;;;15.60;11.28;;;;;;;-0.43;72.77;101289.26;3515010;79;21070;-66
2022/03/08 06:41:04;;;;;;;14.87;11.08;;;;;;;-0.39;72.41;101284.89;3531025;79;21279;-65
2022/03/08 06:45:55;;;;;;;17.62;11.83;;;;;;;-0.41;72.42;101282.62;3490084;79;21457;-66
2022/03/08 06:50:46;;;;;;;15.78;11.25;;;;;;;-0.39;72.61;101294.70;3562111;79;20956;-66
2022/03/08 06:55:38;;;;;;;17.90;12.27;;;;;;;-0.36;72.66;101284.20;3552146;79;20876;-65
2022/03/08 07:00:29;;;;;;;15.83;10.60;;;;;;;-0.33;72.66;101296.80;3532814;78;21731;-65
2022/03/08 07:05:21;;;;;;;14.13;10.70;;;;;;;-0.29;72.46;101297.90;3538693;79;20909;-66
2022/03/08 07:10:13;;;;;;;14.70;10.48;;;;;;;-0.29;72.59;101304.29;3534796;79;22502;-66
2022/03/08 07:15:06;;;;;;;13.32;11.05;;;;;;;-0.28;72.48;101306.95;3519868;79;21217;-66
2022/03/08 07:19:57;;;;;;;13.88;9.38;;;;;;;-0.26;72.46;101312.18;3490430;80;20958;-65
2022/03/08 07:24:48;;;;;;;15.72;10.68;;;;;;;-0.21;72.57;101310.84;3472991;81;20927;-66
2022/03/08 07:29:39;;;;;;;18.73;12.33;;;;;;;-0.24;72.32;101322.11;3478543;81;21735;-65
2022/03/08 07:34:30;;;;;;;16.07;11.73;;;;;;;-0.25;72.70;101319.05;3424130;81;20989;-66
2022/03/08 07:39:21;;;;;;;14.15;11.28;;;;;;;-0.25;72.53;101321.60;3448978;80;20939;-66
2022/03/08 07:44:12;;;;;;;14.78;10.93;;;;;;;-0.27;72.59;101327.00;3450675;81;20958;-66
2022/03/08 07:49:03;;;;;;;15.48;10.98;;;;;;;-0.22;72.71;101334.20;3473770;81;21014;-65
2022/03/08 07:53:54;;;;;;;14.47;9.70;;;;;;;-0.17;72.65;101325.59;3457945;81;21029;-66
2022/03/08 07:58:46;;;;;;;10.38;7.95;;;;;;;-0.19;72.44;101334.83;3417296;81;21153;-65
2022/03/08 08:03:38;;;;;;;12.37;9.53;;;;;;;-0.17;72.66;101340.93;3415711;80;20926;-65
2022/03/08 08:08:29;;;;;;;10.50;9.25;;;;;;;-0.07;72.63;101340.80;3454490;80;21595;-65
2022/03/08 08:13:20;;;;;;;10.13;9.05;;;;;;;-0.02;72.40;101341.10;3468345;81;20978;-66
2022/03/08 08:18:12;;;;;;;10.15;9.05;;;;;;;0.13;72.35;101335.78;3490101;79;20911;-65
2022/03/08 08:23:03;;;;;;;13.08;10.80;;;;;;;0.20;72.12;101337.10;3516538;80;21962;-66
2022/03/08 08:27:54;;;;;;;13.05;9.43;;;;;;;0.24;72.03;101335.23;3478907;79;20959;-66
2022/03/08 08:32:46;;;;;;;13.45;10.48;;;;;;;0.32;72.08;101331.55;3481117;80;20932;-66
2022/03/08 08:37:37;;;;;;;11.28;10.08;;;;;;;0.32;72.09;101325.16;3437733;79;20938;-65
2022/03/08 08:42:29;;;;;;;17.62;11.33;;;;;;;0.34;72.09;101324.86;3466420;79;21643;-65
2022/03/08 08:47:20;;;;;;;14.07;10.23;;;;;;;0.38;71.96;101323.00;3464707;79;21861;-65
2022/03/08 08:52:12;;;;;;;14.55;11.60;;;;;;;0.41;72.11;101317.59;3475858;79;21006;-66
2022/03/08 08:57:04;;;;;;;15.75;12.45;;;;;;;0.47;72.02;101323.13;3451868;80;20950;-66
2022/03/08 09:01:55;;;;;;;14.78;12.20;;;;;;;0.54;71.90;101313.80;3474370;79;21527;-66
2022/03/08 09:06:46;;;;;;;17.20;11.90;;;;;;;0.64;71.90;101314.01;3457309;80;21008;-67
2022/03/08 09:11:38;;;;;;;13.68;10.98;;;;;;;0.62;71.65;101315.18;3473392;80;23180;-65
2022/03/08 09:16:30;;;;;;;15.50;11.53;;;;;;;0.60;71.75;101302.68;3475298;79;20980;-66
2022/03/08 09:21:21;;;;;;;15.20;12.37;;;;;;;0.76;71.53;101293.94;3500057;79;20889;-66
2022/03/08 09:26:12;;;;;;;9.75;8.45;;;;;;;0.88;71.46;101287.87;3502752;79;21407;-67
2022/03/08 09:31:03;;;;;;;11.53;10.25;;;;;;;1.02;71.38;101285.81;3539292;79;20944;-67
2022/03/08 09:35:55;;;;;;;12.58;9.50;;;;;;;1.06;71.19;101285.61;3518144;79;21058;-67
2022/03/08 09:40:47;;;;;;;10.23;8.45;;;;;;;1.29;70.92;101265.31;3572884;78;20984;-67
2022/03/08 09:45:38;;;;;;;11.12;9.58;;;;;;;1.87;69.83;101262.89;3501585;79;20896;-67
2022/03/08 09:50:30;;;;;;;7.78;6.45;;;;;;;4.88;66.77;101247.58;3529156;79;20968;-66
2022/03/08 09:55:23;;;;;;;5.70;5.20;;;;;;;5.44;64.82;101255.35;3587025;79;20869;-68
2022/03/08 10:00:15;;;;;;;6.65;5.37;;;;;;;4.92;65.11;101246.03;3531570;79;21108;-67
2022/03/08 10:05:07;;;;;;;7.95;5.45;;;;;;;4.47;64.83;101256.73;3599263;78;20951;-66
2022/03/08 10:09:59;;;;;;;6.78;5.83;;;;;;;4.10;65.76;101249.69;3475510;79;21504;-66
2022/03/08 10:14:51;;;;;;;9.83;7.97;;;;;;;3.90;65.78;101250.33;3525068;79;21441;-67
2022/03/08 10:19:48;;;;;;;9.48;7.90;;;;;;;3.61;65.88;101236.81;3509274;79;20979;-66
2022/03/08 10:24:39;;;;;;;8.75;7.37;;;;;;;3.58;65.82;101237.95;3442951;81;21579;-66
2022/03/08 10:29:39;;;;;;;6.70;4.33;;;;;;;3.60;65.85;101236.34;3479919;81;21026;-66
2022/03/08 10:34:30;;;;;;;5.15;4.37;;;;;;;3.97;64.34;101221.54;3501290;80;20983;-66
2022/03/08 10:39:21;;;;;;;5.03;4.53;;;;;;;4.09;63.66;101232.47;3503799;81;21464;-66
2022/03/08 10:44:13;;;;;;;7.60;6.20;;;;;;;4.04;64.01;101233.04;3443971;81;20998;-65
2022/03/08 10:49:14;;;;;;;6.85;5.47;;;;;;;4.09;63.80;101239.31;3422081;81;21176;-66
2022/03/08 10:54:14;;;;;;;5.70;5.10;;;;;;;4.11;63.78;101223.55;3536758;80;20928;-66
2022/03/08 10:59:05;;;;;;;5.42;4.62;;;;;;;4.37;63.33;101218.44;3477990;81;20949;-66
2022/03/08 11:03:58;;;;;;;4.97;4.22;;;;;;;5.77;61.98;101211.25;3479369;80;21078;-67
2022/03/08 11:08:54;;;;;;;4.55;4.15;;;;;;;5.73;60.74;101193.05;3453569;80;39412;-66
2022/03/08 11:13:51;;;;;;;4.50;3.92;;;;;;;5.73;60.74;101193.05;3495088;80;21085;-66
2022/03/08 11:18:46;;;;;;;4.12;3.42;;;;;;;5.63;60.52;101200.30;3508810;79;20990;-67
2022/03/08 11:23:38;;;;;;;3.80;3.50;;;;;;;5.49;59.29;101197.09;3548340;78;21026;-67
2022/03/08 11:28:30;;;;;;;3.92;3.50;;;;;;;5.84;58.11;101192.22;3563405;79;21051;-66
2022/03/08 11:34:12;;;;;;;4.58;4.12;;;;;;;6.15;58.53;101196.57;3543787;79;20975;-66
2022/03/08 11:39:21;;;;;;;8.10;4.25;;;;;;;6.19;57.43;101190.70;3570400;79;21144;-66
2022/03/08 11:44:32;;;;;;;5.17;4.15;;;;;;;5.82;58.66;101178.80;3573812;79;20909;-65
2022/03/08 11:49:52;;;;;;;3.70;3.40;;;;;;;6.41;57.53;101176.59;3515344;79;20999;-66
2022/03/08 11:54:58;;;;;;;5.03;4.53;;;;;;;6.14;57.78;101181.91;3573077;79;21050;-66
2022/03/08 12:00:21;;;;;;;5.15;4.20;;;;;;;6.16;57.78;101173.41;3542716;77;21014;-66
2022/03/08 12:05:46;;;;;;;4.92;4.08;;;;;;;8.78;54.83;101160.61;3517278;78;21170;-66
2022/03/08 12:10:43;;;;;;;4.87;3.67;;;;;;;9.18;54.01;101167.86;3520809;79;20957;-66
2022/03/08 12:15:34;;;;;;;4.13;3.73;;;;;;;9.06;54.53;101161.45;3531540;79;21452;-67
2022/03/08 12:20:25;;;;;;;5.33;3.77;;;;;;;9.45;54.89;101145.29;3529369;79;20900;-66
2022/03/08 12:25:16;;;;;;;4.37;3.27;;;;;;;9.35;53.26;101158.83;3515846;78;21770;-66
2022/03/08 12:30:08;;;;;;;7.12;4.10;;;;;;;9.05;53.48;101158.41;3565205;78;21975;-66
2022/03/08 12:35:04;;;;;;;3.98;3.27;;;;;;;8.66;52.75;101158.92;3540802;79;21580;-66
2022/03/08 12:40:03;;;;;;;3.33;3.02;;;;;;;7.99;52.52;101157.13;3563733;78;21018;-66
2022/03/08 12:45:24;;;;;;;6.15;3.72;;;;;;;8.05;53.63;101150.38;3523254;79;20950;-66
2022/03/08 12:50:23;;;;;;;3.58;2.80;;;;;;;7.97;52.87;101156.17;3555163;79;20916;-66
2022/03/08 12:55:22;;;;;;;6.70;2.72;;;;;;;7.51;51.72;101173.97;3559267;79;22038;-66
2022/03/08 13:00:39;;;;;;;3.50;2.67;;;;;;;7.12;52.58;101169.06;3534537;78;21000;-67
2022/03/08 13:05:34;;;;;;;4.03;2.80;;;;;;;7.13;52.92;101165.64;3567297;79;21019;-67
2022/03/08 13:10:28;;;;;;;2.83;2.25;;;;;;;6.98;52.89;101167.66;3512451;79;21517;-67
2022/03/08 13:15:23;;;;;;;4.33;3.02;;;;;;;6.80;52.60;101164.81;3485883;79;20917;-66
2022/03/08 13:20:38;;;;;;;2.08;1.95;;;;;;;6.86;52.98;101165.04;3542309;79;21076;-67
2022/03/08 13:25:30;;;;;;;3.62;2.40;;;;;;;6.80;52.50;101164.81;3532531;79;20960;-66
2022/03/08 13:30:29;;;;;;;2.98;2.27;;;;;;;6.76;52.64;101158.16;3554149;79;21557;-67
2022/03/08 13:35:21;;;;;;;4.83;3.35;;;;;;;6.71;52.75;101155.80;3555653;79;20913;-66
2022/03/08 13:40:25;;;;;;;3.95;2.00;;;;;;;6.86;53.15;101158.58;3538040;79;21450;-66
2022/03/08 13:45:17;;;;;;;5.33;2.87;;;;;;;6.77;53.17;101156.94;3594433;79;21811;-66
2022/03/08 13:50:08;;;;;;;5.08;2.72;;;;;;;6.55;53.01;101157.80;3586300;79;20964;-67
2022/03/08 13:54:59;;;;;;;6.17;3.20;;;;;;;6.46;53.10;101147.96;3560069;78;20983;-67
2022/03/08 13:59:52;;;;;;;7.22;3.08;;;;;;;6.45;53.36;101137.14;3505167;79;20912;-67
2022/03/08 14:04:43;;;;;;;5.00;2.58;;;;;;;6.54;52.83;101144.80;3500930;79;21486;-66
2022/03/08 14:09:35;;;;;;;3.92;2.67;;;;;;;6.70;53.82;101130.38;3552221;79;21821;-66
2022/03/08 14:14:29;;;;;;;4.28;2.75;;;;;;;6.67;53.64;101128.95;3523231;79;20987;-67
2022/03/08 14:19:24;;;;;;;3.33;2.00;;;;;;;6.72;53.75;101135.19;3508905;78;20948;-67
2022/03/08 14:24:20;;;;;;;3.52;2.37;;;;;;;7.14;53.75;101137.68;3523415;79;20959;-66
2022/03/08 14:29:15;;;;;;;5.72;2.85;;;;;;;7.15;53.29;101132.08;3472534;78;21023;-67
2022/03/08 14:34:21;;;;;;;6.62;2.30;;;;;;;7.00;52.85;101131.98;3561536;79;21167;-66
2022/03/08 14:39:26;;;;;;;4.25;2.47;;;;;;;6.77;52.85;101129.80;3560227;79;21587;-67
2022/03/08 14:44:17;;;;;;;4.83;2.15;;;;;;;6.57;53.19;101121.69;3510946;79;21469;-67
2022/03/08 14:49:08;;;;;;;4.20;2.98;;;;;;;6.48;53.30;101119.61;3562858;79;21556;-66
2022/03/08 14:54:02;;;;;;;3.95;2.80;;;;;;;6.71;53.42;101119.23;3509996;79;20971;-67
2022/03/08 14:58:53;;;;;;;3.27;2.00;;;;;;;6.74;53.57;101115.45;3520641;79;21505;-67
2022/03/08 15:03:44;;;;;;;5.53;2.98;;;;;;;6.63;53.54;101124.08;3498466;79;21568;-66
2022/03/08 15:08:35;;;;;;;4.37;2.30;;;;;;;6.56;53.75;101118.62;3514202;79;21501;-67
2022/03/08 15:13:26;;;;;;;2.65;1.55;;;;;;;6.84;53.62;101120.59;3563757;79;21015;-67
2022/03/08 15:18:17;;;;;;;5.30;2.20;;;;;;;6.99;52.85;101120.28;3518153;79;21494;-67
2022/03/08 15:23:09;;;;;;;4.50;1.98;;;;;;;6.63;52.78;101125.79;3532785;79;21027;-66
2022/03/08 15:28:00;;;;;;;2.83;1.98;;;;;;;6.25;52.90;101131.59;3535106;79;20948;-66
2022/03/08 15:32:52;;;;;;;4.05;2.05;;;;;;;5.93;53.13;101125.93;3564325;78;20927;-66
2022/03/08 15:37:42;;;;;;;2.98;1.47;;;;;;;5.71;53.66;101140.49;3567088;78;20960;-66
2022/03/08 15:42:34;;;;;;;5.93;2.33;;;;;;;5.61;53.90;101129.30;3559212;79;21035;-66
2022/03/08 15:47:25;;;;;;;2.83;1.40;;;;;;;5.60;54.16;101126.26;3566891;79;22144;-67
2022/03/08 15:52:16;;;;;;;3.12;2.20;;;;;;;5.59;54.13;101124.89;3519674;79;20940;-67
2022/03/08 15:57:07;;;;;;;4.95;3.15;;;;;;;5.53;54.48;101119.06;3531122;79;20999;-66
2022/03/08 16:01:58;;;;;;;4.97;2.87;;;;;;;5.44;54.54;101126.41;3526755;79;20984;-66
2022/03/08 16:06:49;;;;;;;6.55;4.05;;;;;;;5.22;54.85;101127.12;3544666;79;20912;-66
2022/03/08 16:11:41;;;;;;;1.77;1.50;;;;;;;5.22;54.85;101127.12;3488388;79;21497;-67
2022/03/08 16:16:33;;;;;;;4.40;2.05;;;;;;;5.13;55.23;101132.73;3504130;79;20969;-67
2022/03/08 16:21:25;;;;;;;5.03;2.15;;;;;;;5.03;55.43;101130.58;3564153;79;20967;-67
2022/03/08 16:26:17;;;;;;;21.33;17.82;;;;;;;4.94;55.64;101134.48;3563350;79;20971;-66
2022/03/08 16:31:08;;;;;;;11.60;9.68;;;;;;;4.86;55.97;101136.22;3502955;79;20944;-66
2022/03/08 16:35:59;;;;;;;5.95;5.35;;;;;;;4.79;56.14;101135.03;3491226;79;21425;-66
2022/03/08 16:40:50;;;;;;;5.65;3.90;;;;;;;4.72;56.37;101132.98;3531806;79;20932;-66
2022/03/08 16:45:41;;;;;;;9.48;3.55;;;;;;;4.65;56.63;101127.06;3553366;79;21085;-66
2022/03/08 16:50:33;;;;;;;7.85;2.98;;;;;;;4.59;56.81;101129.82;3540338;79;20892;-66
2022/03/08 16:55:26;;;;;;;11.97;3.98;;;;;;;4.56;57.00;101133.56;3550927;79;21429;-66
2022/03/08 17:00:17;;;;;;;12.58;4.65;;;;;;;4.52;57.20;101136.77;3557748;79;21153;-67
2022/03/08 17:05:09;;;;;;;11.80;4.72;;;;;;;4.50;57.35;101142.27;3544780;79;20971;-67
2022/03/08 17:10:01;;;;;;;3.62;3.08;;;;;;;4.48;57.50;101141.30;3600175;79;20936;-67
2022/03/08 17:14:52;;;;;;;10.70;6.08;;;;;;;4.48;57.63;101140.02;3578287;79;20967;-66
2022/03/08 17:19:43;;;;;;;14.45;8.70;;;;;;;4.47;57.75;101142.14;3514581;79;20968;-67
2022/03/08 17:24:34;;;;;;;13.75;9.05;;;;;;;4.47;57.87;101146.38;3531704;79;21397;-67
2022/03/08 17:29:27;;;;;;;12.80;7.00;;;;;;;4.45;57.92;101151.86;3527725;79;20995;-67
2022/03/08 17:34:18;;;;;;;15.35;7.95;;;;;;;4.42;58.18;101147.46;3552493;79;20905;-66
2022/03/08 17:39:09;;;;;;;17.85;9.43;;;;;;;4.39;58.21;101156.31;3551971;79;21484;-66
2022/03/08 17:44:00;;;;;;;20.05;10.05;;;;;;;4.36;58.49;101153.58;3520780;79;21413;-66
2022/03/08 17:48:51;;;;;;;8.85;4.72;;;;;;;4.34;58.70;101161.23;3527455;79;21843;-67
2022/03/08 17:53:46;;;;;;;19.12;11.28;;;;;;;4.32;58.66;101153.84;3577297;79;20959;-67
2022/03/08 17:58:36;;;;;;;20.40;9.70;;;;;;;4.31;58.92;101153.75;3553083;78;20893;-66
2022/03/08 18:03:28;;;;;;;18.48;10.43;;;;;;;4.29;58.92;101158.86;3538593;78;21011;-66
2022/03/08 18:08:20;;;;;;;19.50;10.25;;;;;;;4.28;59.18;101162.64;3539692;79;21413;-65
2022/03/08 18:13:11;;;;;;;21.48;10.78;;;;;;;4.27;59.22;101158.28;3507372;79;21499;-66
2022/03/08 18:18:03;;;;;;;22.70;11.55;;;;;;;4.25;59.33;101152.18;3544154;79;21280;-66
2022/03/08 18:22:54;;;;;;;27.25;14.90;;;;;;;4.22;59.42;101161.03;3554631;78;21570;-65
2022/03/08 18:27:45;;;;;;;27.93;15.55;;;;;;;4.19;59.53;101157.50;3555671;79;21400;-66
2022/03/08 18:32:36;;;;;;;22.82;12.73;;;;;;;4.19;59.52;101161.36;3488929;79;20994;-66
2022/03/08 18:37:28;;;;;;;32.00;14.95;;;;;;;4.19;59.84;101169.08;3551440;79;22035;-66
2022/03/08 18:42:19;;;;;;;30.60;15.90;;;;;;;4.18;59.75;101173.73;3565580;79;20974;-65
2022/03/08 18:47:10;;;;;;;27.45;13.35;;;;;;;4.14;60.28;101171.83;3545963;79;21001;-66
2022/03/08 18:52:02;;;;;;;22.50;11.40;;;;;;;4.11;60.38;101176.81;3548121;79;20941;-66
2022/03/08 18:56:53;;;;;;;28.77;13.78;;;;;;;4.08;60.64;101167.67;3561261;78;21053;-65
2022/03/08 19:01:44;;;;;;;24.67;12.35;;;;;;;4.05;60.71;101163.64;3564180;79;21019;-66
2022/03/08 19:06:35;;;;;;;55.50;22.42;;;;;;;4.02;61.17;101160.91;3536976;79;21595;-65
2022/03/08 19:11:26;;;;;;;45.83;22.35;;;;;;;4.09;60.92;101162.11;3531604;79;20962;-65
2022/03/08 19:16:19;;;;;;;30.57;17.45;;;;;;;4.13;61.01;101162.36;3531000;78;20948;-65
2022/03/08 19:21:11;;;;;;;38.20;18.98;;;;;;;4.15;61.33;101162.41;3506771;79;20969;-66
2022/03/08 19:26:02;;;;;;;36.50;17.98;;;;;;;4.13;61.19;101161.07;3582681;79;21940;-65
2022/03/08 19:30:53;;;;;;;43.40;25.23;;;;;;;4.09;61.46;101165.97;3562266;79;20956;-66
2022/03/08 19:35:45;;;;;;;41.63;21.52;;;;;;;4.05;61.15;101168.80;3531930;79;20936;-66
2022/03/08 19:40:36;;;;;;;44.85;23.27;;;;;;;4.02;61.64;101176.34;3550199;79;20995;-66
2022/03/08 19:45:28;;;;;;;38.00;19.92;;;;;;;3.97;61.69;101170.08;3558628;79;21059;-66
2022/03/08 19:50:19;;;;;;;36.43;21.03;;;;;;;3.93;62.18;101166.88;3519109;79;21204;-66
2022/03/08 19:55:11;;;;;;;55.48;25.08;;;;;;;3.88;62.04;101161.90;3540571;78;21178;-66
2022/03/08 20:00:03;;;;;;;53.05;22.30;;;;;;;3.89;61.62;101167.12;3567791;79;21512;-66
2022/03/08 20:04:56;;;;;;;24.55;13.08;;;;;;;3.93;62.03;101173.31;3511614;79;20924;-66
2022/03/08 20:09:47;;;;;;;18.47;11.20;;;;;;;3.95;62.28;101175.55;3504759;78;21168;-66
2022/03/08 20:14:41;;;;;;;14.30;8.83;;;;;;;3.94;62.35;101173.81;3544413;79;21299;-66
2022/03/08 20:19:32;;;;;;;14.50;8.75;;;;;;;3.91;62.45;101178.38;3545813;79;21015;-66
2022/03/08 20:24:24;;;;;;;28.02;15.90;;;;;;;3.87;62.52;101178.16;3529757;78;20919;-66
2022/03/08 20:29:15;;;;;;;29.57;15.63;;;;;;;3.84;62.48;101172.84;3580836;78;21520;-66
2022/03/08 20:34:06;;;;;;;17.98;10.35;;;;;;;3.80;62.73;101174.38;3578035;78;21091;-66
2022/03/08 20:38:57;;;;;;;22.05;12.53;;;;;;;3.75;62.81;101161.27;3540008;78;21204;-66
2022/03/08 20:43:49;;;;;;;17.00;10.65;;;;;;;3.80;62.64;101167.53;3543857;78;20967;-66
2022/03/08 20:48:40;;;;;;;18.98;11.68;;;;;;;3.88;63.06;101167.05;3544192;78;20998;-66
2022/03/08 20:53:31;;;;;;;24.82;11.50;;;;;;;3.87;62.92;101162.31;3540619;78;21500;-66
2022/03/08 20:58:22;;;;;;;20.05;12.45;;;;;;;3.84;62.65;101159.98;3471505;78;20927;-66
2022/03/08 21:03:13;;;;;;;20.45;11.88;;;;;;;3.81;62.60;101152.59;3504521;78;21277;-66
2022/03/08 21:08:05;;;;;;;20.17;11.57;;;;;;;3.76;62.67;101153.17;3574309;78;21609;-66
2022/03/08 21:12:56;;;;;;;22.07;12.18;;;;;;;3.71;62.54;101151.63;3553020;79;20935;-66
2022/03/08 21:17:47;;;;;;;20.08;10.72;;;;;;;3.68;62.60;101152.75;3547236;79;21304;-66
2022/03/08 21:22:40;;;;;;;21.02;12.63;;;;;;;3.67;62.62;101165.53;3495867;79;20980;-66
2022/03/08 21:27:31;;;;;;;21.30;11.35;;;;;;;3.65;62.52;101162.91;3476901;80;21074;-66
2022/03/08 21:32:22;;;;;;;25.00;13.53;;;;;;;3.66;62.61;101164.66;3460963;80;22057;-66
2022/03/08 21:37:14;;;;;;;28.55;13.10;;;;;;;3.67;62.75;101161.67;3463364;80;21018;-66
2022/03/08 21:42:06;;;;;;;21.10;12.25;;;;;;;3.68;62.88;101146.32;3428033;80;21015;-66
2022/03/08 21:46:57;;;;;;;27.02;13.65;;;;;;;3.71;62.79;101161.92;3419231;80;20940;-66
2022/03/08 21:51:48;;;;;;;23.05;13.08;;;;;;;3.72;62.93;101158.56;3442724;81;21074;-66
2022/03/08 21:56:39;;;;;;;24.63;14.25;;;;;;;3.73;62.97;101157.73;3458552;80;21625;-66
2022/03/08 22:01:32;;;;;;;23.73;13.75;;;;;;;3.77;62.82;101168.69;3406824;80;20932;-66
2022/03/08 22:06:23;;;;;;;26.07;13.80;;;;;;;3.84;62.85;101175.42;3424779;80;20916;-67
2022/03/08 22:11:14;;;;;;;34.67;17.50;;;;;;;3.87;62.87;101167.87;3485978;80;21148;-66
2022/03/08 22:16:06;;;;;;;33.78;17.65;;;;;;;3.89;63.01;101170.11;3461853;81;22576;-66
2022/03/08 22:20:57;;;;;;;28.55;15.58;;;;;;;3.88;62.93;101165.76;3477329;80;21024;-66
2022/03/08 22:25:49;;;;;;;22.27;11.65;;;;;;;3.86;62.96;101168.66;3471419;80;21001;-67
2022/03/08 22:30:40;;;;;;;15.25;8.75;;;;;;;3.82;63.38;101164.63;3478677;80;20981;-66
2022/03/08 22:35:32;;;;;;;15.28;9.48;;;;;;;3.77;63.96;101158.40;3476578;80;20971;-66